sensor_id;sensor_type;location;lat;lon;timestamp;P1;durP1;ratioP1;P2;durP2;ratioP2
12232;SDS011;6179;51.748;8.728;2023-08-24T00:03:40;9.03;;;8.10;;
12232;SDS011;6179;51.748;8.728;2023-08-24T00:09:41;10.77;;;8.30;;
12232;SDS011;6179;51.748;8.728;2023-08-24T00:15:41;11.00;;;8.80;;
12232;SDS011;6179;51.748;8.728;2023-08-24T00:21:42;14.87;;;8.90;;
12232;SDS011;6179;51.748;8.728;2023-08-24T00:27:43;11.13;;;9.37;;
12232;SDS011;6179;51.748;8.728;2023-08-24T00:33:44;9.70;;;8.73;;
12232;SDS011;6179;51.748;8.728;2023-08-24T00:39:44;13.63;;;10.30;;
12232;SDS011;6179;51.748;8.728;2023-08-24T00:45:45;12.37;;;9.20;;
12232;SDS011;6179;51.748;8.728;2023-08-24T00:51:46;13.33;;;9.50;;
12232;SDS011;6179;51.748;8.728;2023-08-24T00:57:47;23.23;;;10.00;;
12232;SDS011;6179;51.748;8.728;2023-08-24T01:03:48;15.03;;;9.90;;
12232;SDS011;6179;51.748;8.728;2023-08-24T01:09:49;13.57;;;9.03;;
12232;SDS011;6179;51.748;8.728;2023-08-24T01:16:11;13.80;;;10.17;;
12232;SDS011;6179;51.748;8.728;2023-08-24T01:28:38;11.90;;;8.40;;
12232;SDS011;6179;51.748;8.728;2023-08-24T01:34:39;11.03;;;8.77;;
12232;SDS011;6179;51.748;8.728;2023-08-24T01:46:53;14.77;;;9.43;;
12232;SDS011;6179;51.748;8.728;2023-08-24T01:52:56;9.97;;;8.00;;
12232;SDS011;6179;51.748;8.728;2023-08-24T01:58:57;11.07;;;9.00;;
12232;SDS011;6179;51.748;8.728;2023-08-24T02:05:01;9.70;;;8.70;;
12232;SDS011;6179;51.748;8.728;2023-08-24T02:11:05;10.53;;;8.50;;
12232;SDS011;6179;51.748;8.728;2023-08-24T02:17:07;8.93;;;8.13;;
12232;SDS011;6179;51.748;8.728;2023-08-24T02:23:08;15.73;;;9.90;;
12232;SDS011;6179;51.748;8.728;2023-08-24T02:29:09;11.17;;;8.83;;
12232;SDS011;6179;51.748;8.728;2023-08-24T02:35:10;9.93;;;8.50;;
12232;SDS011;6179;51.748;8.728;2023-08-24T02:41:11;8.10;;;7.37;;
12232;SDS011;6179;51.748;8.728;2023-08-24T02:47:14;11.17;;;8.30;;
12232;SDS011;6179;51.748;8.728;2023-08-24T02:53:15;9.20;;;7.63;;
12232;SDS011;6179;51.748;8.728;2023-08-24T02:59:15;13.80;;;7.57;;
12232;SDS011;6179;51.748;8.728;2023-08-24T03:05:16;14.67;;;8.23;;
12232;SDS011;6179;51.748;8.728;2023-08-24T03:11:17;8.30;;;6.70;;
12232;SDS011;6179;51.748;8.728;2023-08-24T03:17:18;11.40;;;8.67;;
12232;SDS011;6179;51.748;8.728;2023-08-24T03:23:19;9.40;;;7.67;;
12232;SDS011;6179;51.748;8.728;2023-08-24T03:29:20;11.80;;;9.20;;
12232;SDS011;6179;51.748;8.728;2023-08-24T03:35:21;11.87;;;8.10;;
12232;SDS011;6179;51.748;8.728;2023-08-24T03:41:22;8.83;;;7.07;;
12232;SDS011;6179;51.748;8.728;2023-08-24T03:47:23;14.33;;;8.37;;
12232;SDS011;6179;51.748;8.728;2023-08-24T03:53:24;9.13;;;8.27;;
12232;SDS011;6179;51.748;8.728;2023-08-24T03:59:24;8.30;;;7.40;;
12232;SDS011;6179;51.748;8.728;2023-08-24T04:05:25;10.93;;;8.67;;
12232;SDS011;6179;51.748;8.728;2023-08-24T04:11:26;15.10;;;8.20;;
12232;SDS011;6179;51.748;8.728;2023-08-24T04:17:27;15.03;;;9.63;;
12232;SDS011;6179;51.748;8.728;2023-08-24T04:23:28;17.40;;;10.10;;
12232;SDS011;6179;51.748;8.728;2023-08-24T04:29:28;12.00;;;8.73;;
12232;SDS011;6179;51.748;8.728;2023-08-24T04:35:29;11.07;;;8.27;;
12232;SDS011;6179;51.748;8.728;2023-08-24T04:41:36;11.27;;;9.70;;
12232;SDS011;6179;51.748;8.728;2023-08-24T04:47:36;9.93;;;8.40;;
12232;SDS011;6179;51.748;8.728;2023-08-24T04:53:37;8.50;;;7.70;;
12232;SDS011;6179;51.748;8.728;2023-08-24T04:59:38;15.67;;;8.67;;
12232;SDS011;6179;51.748;8.728;2023-08-24T05:05:38;14.33;;;9.20;;
12232;SDS011;6179;51.748;8.728;2023-08-24T05:11:39;12.50;;;8.53;;
12232;SDS011;6179;51.748;8.728;2023-08-24T05:17:40;11.47;;;9.27;;
12232;SDS011;6179;51.748;8.728;2023-08-24T05:23:41;13.13;;;9.50;;
12232;SDS011;6179;51.748;8.728;2023-08-24T05:29:42;11.53;;;7.17;;
12232;SDS011;6179;51.748;8.728;2023-08-24T05:35:43;9.50;;;8.33;;
12232;SDS011;6179;51.748;8.728;2023-08-24T05:41:44;10.33;;;7.90;;
12232;SDS011;6179;51.748;8.728;2023-08-24T05:47:45;11.90;;;8.43;;
12232;SDS011;6179;51.748;8.728;2023-08-24T05:53:45;7.73;;;6.50;;
12232;SDS011;6179;51.748;8.728;2023-08-24T05:59:47;8.83;;;6.73;;
12232;SDS011;6179;51.748;8.728;2023-08-24T06:05:47;10.27;;;8.50;;
12232;SDS011;6179;51.748;8.728;2023-08-24T06:11:48;8.40;;;6.97;;
12232;SDS011;6179;51.748;8.728;2023-08-24T06:17:49;17.30;;;9.60;;
12232;SDS011;6179;51.748;8.728;2023-08-24T06:23:50;12.77;;;9.60;;
12232;SDS011;6179;51.748;8.728;2023-08-24T06:29:51;19.60;;;9.47;;
12232;SDS011;6179;51.748;8.728;2023-08-24T06:35:52;10.27;;;7.70;;
12232;SDS011;6179;51.748;8.728;2023-08-24T06:41:53;16.07;;;8.20;;
12232;SDS011;6179;51.748;8.728;2023-08-24T06:47:53;10.90;;;7.87;;
12232;SDS011;6179;51.748;8.728;2023-08-24T06:53:54;12.00;;;7.53;;
12232;SDS011;6179;51.748;8.728;2023-08-24T06:59:55;13.87;;;6.90;;
12232;SDS011;6179;51.748;8.728;2023-08-24T07:05:56;7.87;;;6.10;;
12232;SDS011;6179;51.748;8.728;2023-08-24T07:11:56;9.03;;;6.33;;
12232;SDS011;6179;51.748;8.728;2023-08-24T07:17:57;9.40;;;6.77;;
12232;SDS011;6179;51.748;8.728;2023-08-24T07:23:58;9.43;;;6.00;;
12232;SDS011;6179;51.748;8.728;2023-08-24T07:29:59;9.03;;;6.60;;
12232;SDS011;6179;51.748;8.728;2023-08-24T07:36:00;5.37;;;4.27;;
12232;SDS011;6179;51.748;8.728;2023-08-24T07:42:04;5.40;;;3.27;;
12232;SDS011;6179;51.748;8.728;2023-08-24T07:48:05;3.03;;;2.73;;
12232;SDS011;6179;51.748;8.728;2023-08-24T07:54:06;3.67;;;3.47;;
12232;SDS011;6179;51.748;8.728;2023-08-24T08:00:07;3.50;;;2.83;;
12232;SDS011;6179;51.748;8.728;2023-08-24T08:06:09;6.77;;;3.80;;
12232;SDS011;6179;51.748;8.728;2023-08-24T08:12:10;4.77;;;4.27;;
12232;SDS011;6179;51.748;8.728;2023-08-24T08:18:11;8.57;;;4.37;;
12232;SDS011;6179;51.748;8.728;2023-08-24T08:24:11;3.53;;;2.90;;
12232;SDS011;6179;51.748;8.728;2023-08-24T08:30:12;3.03;;;2.03;;
12232;SDS011;6179;51.748;8.728;2023-08-24T08:36:14;3.67;;;2.40;;
12232;SDS011;6179;51.748;8.728;2023-08-24T08:42:15;2.50;;;1.83;;
12232;SDS011;6179;51.748;8.728;2023-08-24T08:48:16;7.50;;;1.80;;
12232;SDS011;6179;51.748;8.728;2023-08-24T08:54:17;1.97;;;1.87;;
12232;SDS011;6179;51.748;8.728;2023-08-24T09:00:18;0.90;;;0.90;;
12232;SDS011;6179;51.748;8.728;2023-08-24T09:06:19;3.67;;;1.43;;
12232;SDS011;6179;51.748;8.728;2023-08-24T09:12:21;2.10;;;1.97;;
12232;SDS011;6179;51.748;8.728;2023-08-24T09:18:22;3.50;;;1.37;;
12232;SDS011;6179;51.748;8.728;2023-08-24T09:24:34;2.00;;;1.27;;
12232;SDS011;6179;51.748;8.728;2023-08-24T09:30:36;1.53;;;1.43;;
12232;SDS011;6179;51.748;8.728;2023-08-24T09:36:37;1.30;;;1.20;;
12232;SDS011;6179;51.748;8.728;2023-08-24T09:42:43;3.77;;;0.80;;
12232;SDS011;6179;51.748;8.728;2023-08-24T09:48:44;9.43;;;1.60;;
12232;SDS011;6179;51.748;8.728;2023-08-24T09:54:44;3.23;;;1.33;;
12232;SDS011;6179;51.748;8.728;2023-08-24T10:00:45;1.37;;;0.90;;
12232;SDS011;6179;51.748;8.728;2023-08-24T10:06:49;2.40;;;1.40;;
12232;SDS011;6179;51.748;8.728;2023-08-24T10:13:08;6.57;;;2.30;;
12232;SDS011;6179;51.748;8.728;2023-08-24T10:19:23;2.50;;;1.50;;
12232;SDS011;6179;51.748;8.728;2023-08-24T10:25:25;1.87;;;1.40;;
12232;SDS011;6179;51.748;8.728;2023-08-24T10:31:26;2.10;;;0.93;;
12232;SDS011;6179;51.748;8.728;2023-08-24T10:37:29;2.77;;;0.97;;
12232;SDS011;6179;51.748;8.728;2023-08-24T10:43:37;2.63;;;1.07;;
12232;SDS011;6179;51.748;8.728;2023-08-24T10:49:39;1.00;;;0.90;;
12232;SDS011;6179;51.748;8.728;2023-08-24T10:56:12;6.73;;;1.37;;
12232;SDS011;6179;51.748;8.728;2023-08-24T11:02:19;0.90;;;0.80;;
12232;SDS011;6179;51.748;8.728;2023-08-24T11:08:19;2.97;;;1.37;;
12232;SDS011;6179;51.748;8.728;2023-08-24T11:14:51;1.60;;;0.83;;
12232;SDS011;6179;51.748;8.728;2023-08-24T11:21:02;4.07;;;1.60;;
12232;SDS011;6179;51.748;8.728;2023-08-24T11:27:05;4.10;;;1.40;;
12232;SDS011;6179;51.748;8.728;2023-08-24T11:33:05;2.30;;;0.93;;
12232;SDS011;6179;51.748;8.728;2023-08-24T11:39:06;4.23;;;1.10;;
12232;SDS011;6179;51.748;8.728;2023-08-24T11:45:13;1.47;;;1.07;;
12232;SDS011;6179;51.748;8.728;2023-08-24T11:51:14;3.60;;;1.37;;
12232;SDS011;6179;51.748;8.728;2023-08-24T11:57:16;2.50;;;1.00;;
12232;SDS011;6179;51.748;8.728;2023-08-24T12:03:17;4.00;;;1.10;;
12232;SDS011;6179;51.748;8.728;2023-08-24T12:09:19;1.40;;;0.90;;
12232;SDS011;6179;51.748;8.728;2023-08-24T12:15:19;3.13;;;0.90;;
12232;SDS011;6179;51.748;8.728;2023-08-24T12:21:22;2.17;;;1.40;;
12232;SDS011;6179;51.748;8.728;2023-08-24T12:27:25;2.23;;;1.20;;
12232;SDS011;6179;51.748;8.728;2023-08-24T12:33:27;1.17;;;0.97;;
12232;SDS011;6179;51.748;8.728;2023-08-24T12:39:35;3.40;;;1.27;;
12232;SDS011;6179;51.748;8.728;2023-08-24T12:45:36;3.10;;;1.47;;
12232;SDS011;6179;51.748;8.728;2023-08-24T12:51:37;1.47;;;1.10;;
12232;SDS011;6179;51.748;8.728;2023-08-24T12:57:40;12.50;;;1.23;;
12232;SDS011;6179;51.748;8.728;2023-08-24T13:03:41;7.03;;;1.60;;
12232;SDS011;6179;51.748;8.728;2023-08-24T13:09:41;1.50;;;1.13;;
12232;SDS011;6179;51.748;8.728;2023-08-24T13:15:42;2.13;;;1.97;;
12232;SDS011;6179;51.748;8.728;2023-08-24T13:21:43;2.40;;;1.50;;
12232;SDS011;6179;51.748;8.728;2023-08-24T13:27:44;1.37;;;1.23;;
12232;SDS011;6179;51.748;8.728;2023-08-24T13:33:45;1.47;;;1.27;;
12232;SDS011;6179;51.748;8.728;2023-08-24T13:39:46;1.43;;;1.40;;
12232;SDS011;6179;51.748;8.728;2023-08-24T13:45:46;1.50;;;0.90;;
12232;SDS011;6179;51.748;8.728;2023-08-24T13:51:47;2.60;;;1.30;;
12232;SDS011;6179;51.748;8.728;2023-08-24T13:57:48;5.50;;;0.90;;
12232;SDS011;6179;51.748;8.728;2023-08-24T14:03:48;0.93;;;0.80;;
12232;SDS011;6179;51.748;8.728;2023-08-24T14:09:49;1.63;;;0.83;;
12232;SDS011;6179;51.748;8.728;2023-08-24T14:15:50;0.83;;;0.83;;
12232;SDS011;6179;51.748;8.728;2023-08-24T14:21:51;4.50;;;1.07;;
12232;SDS011;6179;51.748;8.728;2023-08-24T14:27:52;0.90;;;0.70;;
12232;SDS011;6179;51.748;8.728;2023-08-24T14:33:53;1.67;;;0.87;;
12232;SDS011;6179;51.748;8.728;2023-08-24T14:39:54;1.27;;;0.80;;
12232;SDS011;6179;51.748;8.728;2023-08-24T14:45:55;1.80;;;1.33;;
12232;SDS011;6179;51.748;8.728;2023-08-24T14:51:55;0.80;;;0.70;;
12232;SDS011;6179;51.748;8.728;2023-08-24T14:57:56;5.50;;;0.70;;
12232;SDS011;6179;51.748;8.728;2023-08-24T15:03:58;0.97;;;0.80;;
12232;SDS011;6179;51.748;8.728;2023-08-24T15:09:59;0.90;;;0.90;;
12232;SDS011;6179;51.748;8.728;2023-08-24T15:15:59;1.13;;;0.93;;
12232;SDS011;6179;51.748;8.728;2023-08-24T15:22:00;5.73;;;1.07;;
12232;SDS011;6179;51.748;8.728;2023-08-24T15:28:01;5.93;;;1.00;;
12232;SDS011;6179;51.748;8.728;2023-08-24T15:34:02;4.97;;;2.33;;
12232;SDS011;6179;51.748;8.728;2023-08-24T15:40:03;1.10;;;1.00;;
12232;SDS011;6179;51.748;8.728;2023-08-24T15:46:04;3.80;;;2.27;;
12232;SDS011;6179;51.748;8.728;2023-08-24T15:52:05;3.53;;;1.07;;
12232;SDS011;6179;51.748;8.728;2023-08-24T15:58:06;2.40;;;1.70;;
12232;SDS011;6179;51.748;8.728;2023-08-24T16:04:06;2.13;;;0.83;;
12232;SDS011;6179;51.748;8.728;2023-08-24T16:10:07;0.80;;;0.80;;
12232;SDS011;6179;51.748;8.728;2023-08-24T16:16:08;3.10;;;0.87;;
12232;SDS011;6179;51.748;8.728;2023-08-24T16:22:09;4.03;;;1.60;;
12232;SDS011;6179;51.748;8.728;2023-08-24T16:28:12;4.97;;;1.07;;
12232;SDS011;6179;51.748;8.728;2023-08-24T16:34:13;5.33;;;1.83;;
12232;SDS011;6179;51.748;8.728;2023-08-24T16:40:14;2.40;;;1.50;;
12232;SDS011;6179;51.748;8.728;2023-08-24T16:46:15;2.20;;;1.00;;
12232;SDS011;6179;51.748;8.728;2023-08-24T16:52:16;2.53;;;0.93;;
12232;SDS011;6179;51.748;8.728;2023-08-24T16:58:16;2.20;;;1.00;;
12232;SDS011;6179;51.748;8.728;2023-08-24T17:04:17;2.10;;;1.00;;
12232;SDS011;6179;51.748;8.728;2023-08-24T17:10:18;4.30;;;1.57;;
12232;SDS011;6179;51.748;8.728;2023-08-24T17:16:19;3.93;;;1.80;;
12232;SDS011;6179;51.748;8.728;2023-08-24T17:22:21;4.90;;;1.50;;
12232;SDS011;6179;51.748;8.728;2023-08-24T17:28:22;7.47;;;1.53;;
12232;SDS011;6179;51.748;8.728;2023-08-24T17:34:23;4.87;;;1.90;;
12232;SDS011;6179;51.748;8.728;2023-08-24T17:40:24;1.30;;;0.70;;
12232;SDS011;6179;51.748;8.728;2023-08-24T17:46:25;3.53;;;1.40;;
12232;SDS011;6179;51.748;8.728;2023-08-24T17:52:26;2.20;;;1.33;;
12232;SDS011;6179;51.748;8.728;2023-08-24T17:58:27;2.30;;;1.00;;
12232;SDS011;6179;51.748;8.728;2023-08-24T18:04:28;1.97;;;1.20;;
12232;SDS011;6179;51.748;8.728;2023-08-24T18:10:29;1.67;;;1.23;;
12232;SDS011;6179;51.748;8.728;2023-08-24T18:16:30;3.10;;;1.23;;
12232;SDS011;6179;51.748;8.728;2023-08-24T18:22:31;3.43;;;1.00;;
12232;SDS011;6179;51.748;8.728;2023-08-24T18:28:32;3.53;;;2.37;;
12232;SDS011;6179;51.748;8.728;2023-08-24T18:34:33;2.40;;;1.10;;
12232;SDS011;6179;51.748;8.728;2023-08-24T18:40:38;5.60;;;0.90;;
12232;SDS011;6179;51.748;8.728;2023-08-24T18:46:39;1.17;;;0.90;;
12232;SDS011;6179;51.748;8.728;2023-08-24T18:52:40;3.33;;;1.13;;
12232;SDS011;6179;51.748;8.728;2023-08-24T18:58:40;1.70;;;1.57;;
12232;SDS011;6179;51.748;8.728;2023-08-24T19:04:41;2.20;;;1.10;;
12232;SDS011;6179;51.748;8.728;2023-08-24T19:10:42;3.20;;;1.33;;
12232;SDS011;6179;51.748;8.728;2023-08-24T19:16:43;3.90;;;1.00;;
12232;SDS011;6179;51.748;8.728;2023-08-24T19:22:44;5.47;;;1.50;;
12232;SDS011;6179;51.748;8.728;2023-08-24T19:28:45;3.43;;;1.93;;
12232;SDS011;6179;51.748;8.728;2023-08-24T19:34:45;2.23;;;1.57;;
12232;SDS011;6179;51.748;8.728;2023-08-24T19:40:46;6.33;;;1.30;;
12232;SDS011;6179;51.748;8.728;2023-08-24T19:46:47;4.63;;;1.70;;
12232;SDS011;6179;51.748;8.728;2023-08-24T19:52:48;1.77;;;1.30;;
12232;SDS011;6179;51.748;8.728;2023-08-24T19:58:49;3.37;;;2.20;;
12232;SDS011;6179;51.748;8.728;2023-08-24T20:04:50;4.73;;;1.90;;
12232;SDS011;6179;51.748;8.728;2023-08-24T20:10:51;7.20;;;1.50;;
12232;SDS011;6179;51.748;8.728;2023-08-24T20:16:52;2.20;;;1.40;;
12232;SDS011;6179;51.748;8.728;2023-08-24T20:22:52;1.53;;;1.43;;
12232;SDS011;6179;51.748;8.728;2023-08-24T20:28:55;10.27;;;1.17;;
12232;SDS011;6179;51.748;8.728;2023-08-24T20:34:56;3.20;;;1.60;;
12232;SDS011;6179;51.748;8.728;2023-08-24T20:40:59;1.03;;;1.03;;
12232;SDS011;6179;51.748;8.728;2023-08-24T20:47:02;2.13;;;1.60;;
12232;SDS011;6179;51.748;8.728;2023-08-24T20:53:02;3.77;;;1.30;;
12232;SDS011;6179;51.748;8.728;2023-08-24T20:59:06;1.30;;;1.20;;
12232;SDS011;6179;51.748;8.728;2023-08-24T21:05:07;4.83;;;1.40;;
12232;SDS011;6179;51.748;8.728;2023-08-24T21:11:09;3.77;;;1.80;;
12232;SDS011;6179;51.748;8.728;2023-08-24T21:17:10;4.80;;;1.73;;
12232;SDS011;6179;51.748;8.728;2023-08-24T21:23:10;2.60;;;1.20;;
12232;SDS011;6179;51.748;8.728;2023-08-24T21:29:11;1.87;;;1.63;;
12232;SDS011;6179;51.748;8.728;2023-08-24T21:35:12;1.70;;;1.47;;
12232;SDS011;6179;51.748;8.728;2023-08-24T21:41:13;2.33;;;1.80;;
12232;SDS011;6179;51.748;8.728;2023-08-24T21:47:14;3.60;;;1.47;;
12232;SDS011;6179;51.748;8.728;2023-08-24T21:53:15;7.90;;;1.37;;
12232;SDS011;6179;51.748;8.728;2023-08-24T21:59:15;2.90;;;2.43;;
12232;SDS011;6179;51.748;8.728;2023-08-24T22:05:16;2.07;;;1.20;;
12232;SDS011;6179;51.748;8.728;2023-08-24T22:11:21;1.83;;;1.53;;
12232;SDS011;6179;51.748;8.728;2023-08-24T22:17:21;4.70;;;1.80;;
12232;SDS011;6179;51.748;8.728;2023-08-24T22:23:22;6.60;;;2.77;;
12232;SDS011;6179;51.748;8.728;2023-08-24T22:29:25;1.60;;;1.50;;
12232;SDS011;6179;51.748;8.728;2023-08-24T22:35:30;3.13;;;1.53;;
12232;SDS011;6179;51.748;8.728;2023-08-24T22:41:32;1.33;;;1.23;;
12232;SDS011;6179;51.748;8.728;2023-08-24T22:47:33;4.90;;;2.13;;
12232;SDS011;6179;51.748;8.728;2023-08-24T22:53:34;3.93;;;1.60;;
12232;SDS011;6179;51.748;8.728;2023-08-24T22:59:35;3.70;;;2.33;;
12232;SDS011;6179;51.748;8.728;2023-08-24T23:05:36;2.20;;;1.77;;
12232;SDS011;6179;51.748;8.728;2023-08-24T23:11:36;4.40;;;2.20;;
12232;SDS011;6179;51.748;8.728;2023-08-24T23:17:37;5.83;;;2.40;;
12232;SDS011;6179;51.748;8.728;2023-08-24T23:23:39;1.17;;;1.07;;
12232;SDS011;6179;51.748;8.728;2023-08-24T23:29:39;3.13;;;2.03;;
12232;SDS011;6179;51.748;8.728;2023-08-24T23:35:40;6.00;;;1.90;;
12232;SDS011;6179;51.748;8.728;2023-08-24T23:41:44;3.20;;;2.23;;
12232;SDS011;6179;51.748;8.728;2023-08-24T23:47:45;9.90;;;2.63;;
12232;SDS011;6179;51.748;8.728;2023-08-24T23:53:46;2.43;;;1.50;;
12232;SDS011;6179;51.748;8.728;2023-08-24T23:59:46;3.60;;;1.90;;
